createdAt,value
2019-04-05T00:02:21.615Z,21.82
2019-04-05T00:04:51.474Z,23.32
2019-04-05T00:07:21.504Z,25.32
2019-04-05T00:09:52.462Z,25.00
2019-04-05T00:12:22.476Z,27.25
2019-04-05T00:14:52.335Z,23.47
2019-04-05T00:17:22.148Z,26.55
2019-04-05T00:19:53.320Z,28.40
2019-04-05T00:22:23.221Z,24.47
2019-04-05T00:24:53.186Z,24.27
2019-04-05T00:27:23.120Z,24.30
2019-04-05T00:29:52.990Z,26.82
2019-04-05T00:32:22.926Z,25.70
2019-04-05T00:34:52.836Z,23.22
2019-04-05T00:37:22.682Z,22.25
2019-04-05T00:39:52.490Z,25.48
2019-04-05T00:42:22.348Z,22.37
2019-04-05T00:44:52.356Z,22.45
2019-04-05T00:47:22.290Z,18.92
2019-04-05T00:49:52.112Z,21.90
2019-04-05T00:52:21.977Z,20.35
2019-04-05T00:54:51.870Z,24.05
2019-04-05T00:57:21.812Z,19.95
2019-04-05T00:59:51.726Z,17.50
2019-04-05T01:02:26.118Z,21.20
2019-04-05T01:05:01.076Z,22.80
2019-04-05T01:07:36.048Z,21.10
2019-04-05T01:10:07.662Z,21.75
2019-04-05T01:12:37.642Z,18.55
2019-04-05T01:15:09.163Z,21.30
2019-04-05T01:17:39.671Z,21.73
2019-04-05T01:20:09.628Z,21.97
2019-04-05T01:22:39.514Z,20.25
2019-04-05T01:25:09.372Z,20.10
2019-04-05T01:27:40.176Z,23.45
2019-04-05T01:30:15.025Z,22.40
2019-04-05T01:32:45.086Z,20.60
2019-04-05T01:35:15.043Z,19.85
2019-04-05T01:37:45.273Z,17.80
2019-04-05T01:40:15.269Z,21.37
2019-04-05T01:42:45.204Z,22.02
2019-04-05T01:45:15.198Z,19.75
2019-04-05T01:47:45.219Z,18.98
2019-04-05T01:50:15.299Z,17.75
2019-04-05T01:52:45.327Z,21.77
2019-04-05T01:55:15.240Z,23.12
2019-04-05T01:57:45.597Z,22.20
2019-04-05T02:00:16.199Z,18.92
2019-04-05T02:02:47.492Z,21.27
2019-04-05T02:05:17.432Z,22.82
2019-04-05T02:07:47.374Z,19.90
2019-04-05T02:10:17.419Z,21.45
2019-04-05T02:12:47.378Z,22.75
2019-04-05T02:15:25.813Z,22.07
2019-04-05T02:17:56.341Z,23.00
2019-04-05T02:20:26.441Z,25.75
2019-04-05T02:22:56.457Z,25.60
2019-04-05T02:25:26.597Z,23.32
2019-04-05T02:27:56.507Z,21.97
2019-04-05T02:30:26.936Z,24.70
2019-04-05T02:32:57.019Z,21.50
2019-04-05T02:35:27.130Z,24.20
2019-04-05T02:37:57.050Z,23.60
2019-04-05T02:40:28.027Z,23.83
2019-04-05T02:42:58.482Z,26.00
2019-04-05T02:45:29.016Z,27.07
2019-04-05T02:48:01.585Z,25.85
2019-04-05T02:50:31.719Z,24.25
2019-04-05T02:53:02.797Z,28.65
2019-04-05T02:55:32.839Z,27.07
2019-04-05T02:58:02.641Z,27.32
2019-04-05T03:00:32.724Z,24.00
2019-04-05T03:03:03.634Z,21.95
2019-04-05T03:05:33.549Z,28.80
2019-04-05T03:08:03.616Z,29.20
2019-04-05T03:11:04.413Z,29.63
2019-04-05T03:13:36.353Z,28.42
2019-04-05T03:16:10.921Z,33.00
2019-04-05T03:18:43.464Z,27.87
2019-04-05T03:21:14.315Z,28.80
2019-04-05T03:23:44.598Z,27.35
2019-04-05T03:26:18.626Z,29.10
2019-04-05T03:28:50.594Z,28.25
2019-04-05T03:31:24.991Z,31.90
2019-04-05T03:33:53.874Z,32.35
2019-04-05T03:36:23.701Z,31.45
2019-04-05T03:38:53.822Z,33.00
2019-04-05T03:41:26.768Z,26.17
2019-04-05T03:43:58.102Z,30.35
2019-04-05T03:46:28.110Z,31.87
2019-04-05T03:48:58.519Z,34.75
2019-04-05T03:51:28.463Z,34.00
2019-04-05T03:53:58.461Z,34.83
2019-04-05T03:56:28.440Z,33.95
2019-04-05T03:58:58.293Z,34.03
2019-04-05T04:01:28.110Z,33.67
2019-04-05T04:03:58.135Z,35.52
2019-04-05T04:06:28.132Z,36.05
2019-04-05T04:08:58.202Z,37.65
2019-04-05T04:11:28.450Z,34.73
2019-04-05T04:13:58.404Z,40.50
2019-04-05T04:16:28.764Z,37.35
2019-04-05T04:18:58.820Z,35.60
2019-04-05T04:21:48.014Z,36.20
2019-04-05T04:24:18.930Z,35.48
2019-04-05T04:26:49.302Z,36.13
2019-04-05T04:29:19.856Z,38.67
2019-04-05T04:31:49.835Z,37.58
2019-04-05T04:34:20.538Z,37.90
2019-04-05T04:36:50.530Z,38.35
2019-04-05T04:39:20.924Z,38.95
2019-04-05T04:41:50.842Z,41.95
2019-04-05T04:44:20.908Z,42.78
2019-04-05T04:46:50.787Z,44.90
2019-04-05T04:49:20.636Z,34.53
2019-04-05T04:51:50.639Z,37.23
2019-04-05T04:54:20.644Z,36.45
2019-04-05T04:56:50.768Z,38.53
2019-04-05T04:59:20.746Z,40.00
2019-04-05T05:01:50.786Z,40.52
2019-04-05T05:04:20.752Z,40.75
2019-04-05T05:06:50.662Z,40.48
2019-04-05T05:09:22.015Z,44.20
2019-04-05T05:11:57.790Z,43.40
2019-04-05T05:14:27.802Z,43.02
2019-04-05T05:16:57.624Z,42.33
2019-04-05T05:19:27.639Z,42.00
2019-04-05T05:22:00.152Z,34.38
2019-04-05T05:24:30.307Z,38.50
2019-04-05T05:27:00.322Z,36.33
2019-04-05T05:29:30.290Z,43.05
2019-04-05T05:32:00.236Z,41.60
2019-04-05T05:34:30.046Z,41.23
2019-04-05T05:37:00.042Z,41.35
2019-04-05T05:39:30.167Z,39.80
2019-04-05T05:42:00.287Z,36.98
2019-04-05T05:44:30.284Z,40.12
2019-04-05T05:47:01.186Z,35.70
2019-04-05T05:49:31.166Z,36.58
2019-04-05T05:52:01.117Z,34.98
2019-04-05T05:54:31.063Z,31.10
2019-04-05T05:57:01.165Z,34.45
2019-04-05T05:59:31.135Z,31.65
2019-04-05T06:02:01.014Z,33.67
2019-04-05T06:04:31.059Z,33.08
2019-04-05T06:07:01.766Z,32.53
2019-04-05T06:09:31.679Z,28.10
2019-04-05T06:12:01.771Z,32.30
2019-04-05T06:14:33.265Z,33.25
2019-04-05T06:17:03.615Z,32.33
2019-04-05T06:19:34.067Z,29.20
2019-04-05T06:22:04.253Z,24.27
2019-04-05T06:24:34.146Z,30.32
2019-04-05T06:27:04.111Z,26.82
2019-04-05T06:29:34.183Z,26.07
2019-04-05T06:32:04.322Z,27.42
2019-04-05T06:34:35.505Z,28.10
2019-04-05T06:37:05.374Z,24.98
2019-04-05T06:39:35.664Z,24.60
2019-04-05T06:42:05.853Z,30.75
2019-04-05T06:44:35.879Z,27.77
2019-04-05T06:47:05.896Z,28.95
2019-04-05T06:49:35.859Z,26.87
2019-04-05T06:52:05.867Z,28.10
2019-04-05T06:54:35.879Z,26.15
2019-04-05T06:57:05.832Z,29.40
2019-04-05T06:59:35.665Z,31.40
2019-04-05T07:02:05.886Z,29.37
2019-04-05T07:04:35.695Z,27.00
2019-04-05T07:07:05.651Z,30.40
2019-04-05T07:09:36.604Z,31.42
2019-04-05T07:12:06.417Z,32.50
2019-04-05T07:14:36.417Z,32.50
2019-04-05T07:17:06.336Z,30.02
2019-04-05T07:19:36.256Z,30.85
2019-04-05T07:22:06.083Z,31.00
2019-04-05T07:24:35.976Z,29.07
2019-04-05T07:27:06.054Z,30.82
2019-04-05T07:29:36.161Z,27.13
2019-04-05T07:32:06.281Z,24.65
2019-04-05T07:34:36.237Z,25.60
2019-04-05T07:37:06.165Z,25.25
2019-04-05T07:39:36.140Z,29.40
2019-04-05T07:42:06.093Z,25.97
2019-04-05T07:44:37.033Z,26.35
2019-04-05T07:47:06.943Z,24.55
2019-04-05T07:49:37.025Z,24.92
2019-04-05T07:52:06.910Z,23.87
2019-04-05T07:54:37.845Z,23.52
2019-04-05T07:57:08.820Z,22.85
2019-04-05T07:59:38.727Z,20.27
2019-04-05T08:02:08.761Z,20.15
2019-04-05T08:04:38.516Z,23.57
2019-04-05T08:07:08.453Z,23.75
2019-04-05T08:09:38.352Z,24.52
2019-04-05T08:12:08.659Z,19.70
2019-04-05T08:14:38.595Z,20.32
2019-04-05T08:17:08.609Z,20.75
2019-04-05T08:19:38.624Z,21.80
2019-04-05T08:22:08.560Z,24.60
2019-04-05T08:24:38.408Z,24.60
2019-04-05T08:27:08.425Z,19.48
2019-04-05T08:29:38.366Z,20.32
2019-04-05T08:32:14.362Z,21.35
2019-04-05T08:34:39.960Z,20.52
2019-04-05T08:37:09.910Z,22.77
2019-04-05T08:39:39.993Z,20.80
2019-04-05T08:42:11.025Z,22.37
2019-04-05T08:44:41.254Z,23.62
2019-04-05T08:47:11.196Z,24.27
2019-04-05T08:49:41.406Z,27.52
2019-04-05T08:52:12.554Z,23.20
2019-04-05T08:54:42.558Z,23.57
2019-04-05T08:57:12.447Z,25.75
2019-04-05T08:59:42.452Z,29.45
2019-04-05T09:02:12.505Z,24.98
2019-04-05T09:04:42.478Z,25.65
2019-04-05T09:07:12.377Z,24.20
2019-04-05T09:09:42.389Z,26.42
2019-04-05T09:12:12.377Z,24.80
2019-04-05T09:14:42.339Z,26.65
2019-04-05T09:17:12.372Z,27.70
2019-04-05T09:19:42.303Z,29.50
2019-04-05T09:22:13.418Z,24.00
2019-04-05T09:24:43.551Z,24.63
2019-04-05T09:27:13.734Z,27.00
2019-04-05T09:29:43.614Z,25.37
2019-04-05T09:32:13.498Z,30.55
2019-04-05T09:34:43.534Z,26.15
2019-04-05T09:37:13.712Z,26.20
2019-04-05T09:39:43.692Z,31.07
2019-04-05T09:42:13.648Z,29.35
2019-04-05T09:44:43.644Z,27.73
2019-04-05T09:47:13.545Z,30.43
2019-04-05T09:49:43.406Z,30.15
2019-04-05T09:52:13.485Z,27.95
2019-04-05T09:54:44.556Z,36.60
2019-04-05T09:57:14.651Z,33.48
2019-04-05T09:59:44.692Z,28.92
2019-04-05T10:02:14.700Z,31.48
2019-04-05T10:04:46.134Z,33.40
2019-04-05T10:07:16.053Z,27.95
2019-04-05T10:09:46.866Z,29.48
2019-04-05T10:12:16.887Z,28.25
2019-04-05T10:14:46.660Z,29.67
2019-04-05T10:17:16.849Z,27.65
2019-04-05T10:19:49.995Z,29.45
2019-04-05T10:22:18.463Z,27.48
2019-04-05T10:24:48.362Z,30.08
2019-04-05T10:27:18.394Z,35.00
2019-04-05T10:29:49.635Z,27.77
2019-04-05T10:32:19.791Z,31.50
2019-04-05T10:34:50.941Z,24.87
2019-04-05T10:37:20.873Z,27.95
2019-04-05T10:39:50.927Z,25.52
2019-04-05T10:42:34.571Z,26.60
2019-04-05T10:45:05.114Z,24.47
2019-04-05T10:47:35.056Z,26.52
2019-04-05T10:50:06.900Z,25.65
2019-04-05T10:52:36.735Z,26.30
2019-04-05T10:55:06.846Z,25.92
2019-04-05T10:57:36.931Z,24.67
2019-04-05T11:00:09.326Z,25.75
2019-04-05T11:02:39.432Z,25.45
2019-04-05T11:05:09.489Z,25.17
2019-04-05T11:07:39.462Z,22.17
2019-04-05T11:10:09.360Z,21.93
2019-04-05T11:12:39.386Z,23.83
2019-04-05T11:15:09.355Z,24.07
2019-04-05T11:17:42.260Z,24.70
2019-04-05T11:20:21.127Z,26.73
2019-04-05T11:22:42.967Z,23.20
2019-04-05T11:25:12.963Z,23.12
2019-04-05T11:27:42.999Z,25.85
2019-04-05T11:30:12.849Z,24.90
2019-04-05T11:32:42.873Z,21.30
2019-04-05T11:35:15.049Z,20.55
2019-04-05T11:37:44.602Z,23.02
2019-04-05T11:40:20.531Z,19.20
2019-04-05T11:42:51.787Z,22.42
2019-04-05T11:45:21.819Z,21.60
2019-04-05T11:47:53.667Z,22.22
2019-04-05T11:50:33.938Z,22.48
2019-04-05T11:52:55.055Z,23.55
2019-04-05T11:55:25.218Z,23.30
2019-04-05T11:57:55.108Z,22.58
2019-04-05T12:00:32.586Z,22.70
2019-04-05T12:03:09.665Z,22.37
2019-04-05T12:05:40.540Z,23.77
2019-04-05T12:08:12.613Z,21.12
2019-04-05T12:10:42.707Z,21.45
2019-04-05T12:13:13.743Z,22.20
2019-04-05T12:15:45.154Z,22.30
2019-04-05T12:18:19.124Z,24.52
2019-04-05T12:20:52.384Z,25.23
2019-04-05T12:23:20.653Z,24.57
2019-04-05T12:25:50.938Z,23.50
2019-04-05T12:28:20.851Z,21.07
2019-04-05T12:30:51.607Z,22.90
2019-04-05T12:33:21.473Z,25.85
2019-04-05T12:35:54.882Z,24.75
2019-04-05T12:38:33.558Z,24.47
2019-04-05T12:41:04.309Z,22.77
2019-04-05T12:43:36.717Z,22.95
2019-04-05T12:46:07.398Z,21.62
2019-04-05T12:48:37.609Z,23.27
2019-04-05T12:51:07.794Z,23.40
2019-04-05T12:53:38.215Z,24.57
2019-04-05T12:56:08.558Z,21.77
2019-04-05T12:58:39.575Z,22.55
2019-04-05T13:01:09.518Z,24.90
2019-04-05T13:03:40.133Z,22.37
2019-04-05T13:06:10.008Z,24.63
2019-04-05T13:08:40.367Z,26.80
2019-04-05T13:11:10.318Z,23.45
2019-04-05T13:13:40.299Z,23.73
2019-04-05T13:16:10.977Z,25.92
2019-04-05T13:18:41.030Z,22.35
2019-04-05T13:21:15.232Z,23.35
2019-04-05T13:23:43.215Z,20.52
2019-04-05T13:26:14.502Z,23.77
2019-04-05T13:28:44.400Z,21.82
2019-04-05T13:31:18.274Z,21.85
2019-04-05T13:33:47.649Z,25.77
2019-04-05T13:36:17.512Z,22.77
2019-04-05T13:38:54.624Z,21.90
2019-04-05T13:41:19.295Z,22.15
2019-04-05T13:43:50.836Z,21.12
2019-04-05T13:46:22.651Z,20.62
2019-04-05T13:48:52.286Z,21.60
2019-04-05T13:51:28.124Z,21.87
2019-04-05T13:53:55.930Z,21.37
2019-04-05T13:56:25.848Z,22.00
2019-04-05T13:58:56.172Z,23.00
2019-04-05T14:01:26.817Z,22.00
2019-04-05T14:03:57.022Z,22.50
2019-04-05T14:06:26.909Z,26.23
2019-04-05T14:08:57.384Z,19.98
2019-04-05T14:11:27.378Z,22.52
2019-04-05T14:13:57.504Z,21.60
2019-04-05T14:16:27.828Z,20.65
2019-04-05T14:18:58.050Z,21.73
2019-04-05T14:21:39.514Z,22.32
2019-04-05T14:23:59.707Z,21.90
2019-04-05T14:26:30.398Z,23.35
2019-04-05T14:29:03.485Z,24.52
2019-04-05T14:31:32.230Z,21.80
2019-04-05T14:34:03.671Z,22.67
2019-04-05T14:36:33.442Z,22.62
2019-04-05T14:39:04.029Z,19.05
2019-04-05T14:41:35.962Z,20.92
2019-04-05T14:44:05.799Z,17.60
2019-04-05T14:46:38.258Z,22.75
2019-04-05T14:49:07.187Z,18.92
2019-04-05T14:51:37.404Z,19.80
2019-04-05T14:54:10.003Z,23.05
2019-04-05T14:56:40.234Z,21.75
2019-04-05T14:59:10.186Z,20.55
2019-04-05T15:01:40.082Z,21.02
2019-04-05T15:04:12.026Z,19.55
2019-04-05T15:06:42.221Z,20.72
2019-04-05T15:09:12.143Z,22.52
2019-04-05T15:11:42.403Z,21.75
2019-04-05T15:14:12.469Z,21.50
2019-04-05T15:16:42.691Z,20.50
2019-04-05T15:19:13.573Z,20.35
2019-04-05T15:21:45.364Z,18.85
2019-04-05T15:24:16.874Z,19.55
2019-04-05T15:26:49.439Z,19.32
2019-04-05T15:29:38.873Z,18.82
2019-04-05T15:32:09.941Z,20.57
2019-04-05T15:34:39.742Z,21.15
2019-04-05T15:37:09.863Z,22.55
2019-04-05T15:39:39.775Z,20.35
2019-04-05T15:42:12.215Z,23.65
2019-04-05T15:44:41.870Z,21.65
2019-04-05T15:47:13.645Z,24.00
2019-04-05T15:49:44.078Z,22.40
2019-04-05T15:52:19.385Z,21.75
2019-04-05T15:54:50.532Z,21.55
2019-04-05T15:57:39.985Z,21.65
2019-04-05T16:00:11.861Z,21.75
2019-04-05T16:02:43.106Z,24.10
2019-04-05T16:05:13.393Z,22.00
2019-04-05T16:07:43.595Z,22.15
2019-04-05T16:10:13.516Z,22.07
2019-04-05T16:12:43.477Z,22.70
2019-04-05T16:15:13.614Z,23.30
2019-04-05T16:17:43.833Z,26.60
2019-04-05T16:20:13.854Z,22.85
2019-04-05T16:22:43.881Z,19.52
2019-04-05T16:25:15.646Z,23.50
2019-04-05T16:27:46.728Z,21.77
2019-04-05T16:30:16.720Z,23.07
2019-04-05T16:32:46.797Z,22.70
2019-04-05T16:35:17.975Z,26.68
2019-04-05T16:37:48.362Z,23.45
2019-04-05T16:40:18.787Z,21.60
2019-04-05T16:43:01.913Z,20.05
2019-04-05T16:45:22.618Z,23.18
2019-04-05T16:47:52.591Z,23.67
2019-04-05T16:50:23.207Z,22.22
2019-04-05T16:52:55.580Z,22.87
2019-04-05T16:55:25.546Z,21.90
2019-04-05T16:57:57.504Z,22.55
2019-04-05T17:00:28.444Z,22.25
2019-04-05T17:02:59.850Z,23.75
2019-04-05T17:05:33.443Z,22.77
2019-04-05T17:08:03.559Z,21.87
2019-04-05T17:10:33.669Z,25.25
2019-04-05T17:13:03.953Z,20.60
2019-04-05T17:15:34.297Z,23.70
2019-04-05T17:18:06.147Z,24.20
2019-04-05T17:20:37.227Z,20.82
2019-04-05T17:23:07.590Z,22.87
2019-04-05T17:25:37.807Z,24.70
2019-04-05T17:28:08.093Z,25.92
2019-04-05T17:30:38.608Z,21.27
2019-04-05T17:33:08.470Z,24.55
2019-04-05T17:35:41.110Z,24.35
2019-04-05T17:38:11.182Z,22.93
2019-04-05T17:40:41.212Z,25.95
2019-04-05T17:43:11.367Z,24.45
2019-04-05T17:45:41.391Z,24.90
2019-04-05T17:48:11.599Z,27.80
2019-04-05T17:50:42.102Z,24.43
2019-04-05T17:53:15.772Z,26.42
2019-04-05T17:55:45.724Z,24.77
2019-04-05T17:58:15.630Z,22.87
2019-04-05T18:00:45.627Z,25.50
2019-04-05T18:03:16.767Z,24.30
2019-04-05T18:05:47.142Z,24.92
2019-04-05T18:08:17.550Z,24.63
2019-04-05T18:10:47.786Z,26.80
2019-04-05T18:13:18.220Z,28.50
2019-04-05T18:15:52.793Z,25.08
2019-04-05T18:18:20.032Z,28.05
2019-04-05T18:20:50.420Z,25.35
2019-04-05T18:23:25.299Z,28.92
2019-04-05T18:25:52.763Z,25.60
2019-04-05T18:28:22.698Z,26.10
2019-04-05T18:30:53.194Z,28.40
2019-04-05T18:33:23.481Z,28.20
2019-04-05T18:35:53.661Z,28.35
2019-04-05T18:38:24.519Z,27.55
2019-04-05T18:40:55.164Z,28.07
2019-04-05T18:43:25.528Z,27.42
2019-04-05T18:45:55.658Z,27.93
2019-04-05T18:48:26.180Z,28.17
2019-04-05T18:50:56.783Z,29.85
2019-04-05T18:53:37.116Z,28.62
2019-04-05T18:55:59.308Z,27.20
2019-04-05T18:58:29.121Z,29.05
2019-04-05T19:00:59.260Z,29.60
2019-04-05T19:03:29.240Z,28.10
2019-04-05T19:05:59.558Z,30.32
2019-04-05T19:08:39.479Z,31.25
2019-04-05T19:11:03.614Z,30.55
2019-04-05T19:13:33.915Z,29.65
2019-04-05T19:16:03.881Z,31.00
2019-04-05T19:18:34.278Z,30.80
2019-04-05T19:21:04.665Z,32.48
2019-04-05T19:23:35.005Z,32.63
2019-04-05T19:26:06.860Z,33.65
2019-04-05T19:28:39.431Z,28.60
2019-04-05T19:48:53.332Z,32.58
2019-04-05T19:51:24.745Z,29.23
2019-04-05T19:54:01.089Z,30.45
2019-04-05T19:56:37.031Z,28.57
2019-04-05T19:59:07.005Z,31.17
2019-04-05T20:01:40.696Z,31.12
2019-04-05T20:04:11.023Z,30.60
2019-04-05T20:06:40.885Z,33.05
2019-04-05T20:09:10.960Z,30.32
2019-04-05T20:11:41.551Z,31.35
2019-04-05T20:14:12.005Z,31.35
2019-04-05T20:16:42.248Z,34.43
2019-04-05T20:19:12.322Z,28.23
2019-04-05T20:21:43.423Z,32.70
2019-04-05T20:24:14.590Z,30.65
2019-04-05T20:26:45.469Z,30.08
2019-04-05T20:29:15.384Z,31.77
2019-04-05T20:31:45.825Z,35.17
2019-04-05T20:34:17.043Z,29.87
2019-04-05T20:36:46.947Z,32.48
2019-04-05T20:39:17.314Z,33.73
2019-04-05T20:41:47.425Z,33.53
2019-04-05T20:44:17.299Z,29.05
2019-04-05T20:46:47.252Z,31.87
2019-04-05T20:49:17.461Z,30.17
2019-04-05T20:51:47.942Z,32.45
2019-04-05T20:54:24.655Z,29.65
2019-04-05T20:56:50.112Z,36.53
2019-04-05T20:59:20.092Z,33.83
2019-04-05T21:01:50.391Z,33.70
2019-04-05T21:04:25.974Z,32.50
2019-04-05T21:06:56.851Z,31.00
2019-04-05T21:09:27.109Z,32.67
2019-04-05T21:11:57.524Z,33.42
2019-04-05T21:14:27.383Z,32.20
2019-04-05T21:16:57.465Z,32.90
2019-04-05T21:19:28.510Z,34.88
2019-04-05T21:21:58.480Z,34.23
2019-04-05T21:24:36.112Z,34.35
2019-04-05T21:27:00.407Z,39.30
2019-04-05T21:29:39.611Z,33.02
2019-04-05T21:32:09.968Z,31.30
2019-04-05T21:34:40.188Z,32.03
2019-04-05T21:37:10.560Z,33.53
2019-04-05T21:39:40.485Z,35.40
2019-04-05T21:42:10.496Z,37.00
2019-04-05T21:44:40.510Z,36.80
2019-04-05T21:47:10.897Z,32.53
2019-04-05T21:49:40.880Z,36.10
2019-04-05T21:52:11.021Z,35.58
2019-04-05T21:54:47.443Z,35.38
2019-04-05T21:57:12.843Z,32.48
2019-04-05T21:59:44.206Z,36.53
2019-04-05T22:02:15.310Z,36.03
2019-04-05T22:04:45.298Z,34.92
2019-04-05T22:07:15.845Z,34.15
2019-04-05T22:09:46.199Z,34.35
2019-04-05T22:12:17.896Z,38.40
2019-04-05T22:14:47.876Z,39.45
2019-04-05T22:17:19.004Z,41.75
2019-04-05T22:19:49.703Z,40.05
2019-04-05T22:22:19.948Z,36.20
2019-04-05T22:24:58.691Z,34.15
2019-04-05T22:27:21.954Z,35.78
2019-04-05T22:29:52.570Z,38.65
2019-04-05T22:32:22.889Z,33.58
2019-04-05T22:34:53.108Z,42.67
2019-04-05T22:37:23.422Z,41.85
2019-04-05T22:39:54.091Z,39.90
2019-04-05T22:42:24.796Z,38.63
2019-04-05T22:44:54.712Z,40.28
2019-04-05T22:47:24.791Z,42.00
2019-04-05T22:49:54.840Z,40.60
2019-04-05T22:52:25.174Z,38.00
2019-04-05T22:54:55.053Z,37.28
2019-04-05T22:57:24.866Z,36.05
2019-04-05T22:59:55.230Z,38.30
2019-04-05T23:02:25.143Z,40.95
2019-04-05T23:04:55.468Z,41.98
2019-04-05T23:07:26.004Z,41.58
2019-04-05T23:09:56.310Z,40.95
2019-04-05T23:12:26.177Z,41.83
2019-04-05T23:14:56.747Z,38.38
2019-04-05T23:17:27.107Z,34.80
2019-04-05T23:19:57.376Z,38.80
2019-04-05T23:22:27.180Z,37.33
2019-04-05T23:24:57.023Z,34.65
2019-04-05T23:27:27.765Z,32.38
2019-04-05T23:29:58.076Z,33.70
2019-04-05T23:32:28.870Z,28.87
2019-04-05T23:34:59.127Z,31.07
2019-04-05T23:37:29.987Z,29.95
2019-04-05T23:40:01.830Z,31.77
2019-04-05T23:42:32.183Z,31.60
2019-04-05T23:45:02.552Z,30.85
2019-04-05T23:47:32.708Z,25.32
2019-04-05T23:50:03.891Z,29.75
2019-04-05T23:52:40.343Z,29.23
2019-04-05T23:55:10.388Z,26.12
2019-04-05T23:57:40.608Z,29.10
